Time;durP1;ratioP1;P1;durP2;ratioP2;P2;SDS_P1;SDS_P2;PMS_P1;PMS_P2;Temp;Humidity;BMP_temperature;BMP_pressure;BME280_temperature;BME280_humidity;BME280_pressure;Samples;Min_cycle;Max_cycle;Signal;HPM_P1;HPM_P2
2023/03/15 00:01:18;;;;;;;33.40;18.40;;;;;;;8.39;57.53;97600.35;105306;1258;107218;-72
2023/03/15 00:03:47;;;;;;;35.60;18.60;;;;;;;8.33;57.59;97597.98;105182;1258;97484;-73
2023/03/15 00:06:16;;;;;;;35.80;19.10;;;;;;;8.30;57.71;97597.23;105183;1258;97080;-85
2023/03/15 00:08:46;;;;;;;37.80;20.10;;;;;;;8.27;57.56;97598.92;105128;1257;110036;-73
2023/03/15 00:11:15;;;;;;;41.10;20.50;;;;;;;8.23;57.66;97606.14;105271;1266;100160;-75
2023/03/15 00:13:45;;;;;;;41.10;21.60;;;;;;;8.20;57.76;97614.98;105117;1261;107696;-73
2023/03/15 00:16:16;;;;;;;42.50;22.70;;;;;;;8.17;57.78;97616.83;105314;1258;96667;-73
2023/03/15 00:18:45;;;;;;;38.20;20.90;;;;;;;8.15;57.76;97618.74;105164;1254;98237;-73
2023/03/15 00:21:17;;;;;;;39.50;20.70;;;;;;;8.13;57.83;97622.98;105216;1254;109401;-73
2023/03/15 00:23:45;;;;;;;39.90;21.30;;;;;;;8.11;57.94;97618.80;104970;1260;99932;-77
2023/03/15 00:26:13;;;;;;;40.00;20.50;;;;;;;8.09;57.79;97623.52;105339;1266;107326;-72
2023/03/15 00:28:42;;;;;;;35.00;18.80;;;;;;;8.07;57.90;97631.45;104986;1260;96686;-76
2023/03/15 00:31:21;;;;;;;36.70;19.50;;;;;;;8.05;58.09;97637.23;105201;1256;96567;-74
2023/03/15 00:33:54;;;;;;;38.20;18.50;;;;;;;8.04;58.10;97639.48;105154;1260;109946;-75
2023/03/15 00:36:24;;;;;;;35.70;16.80;;;;;;;8.03;58.20;97634.81;105355;1273;100903;-74
2023/03/15 00:38:54;;;;;;;28.50;13.70;;;;;;;8.04;58.11;97638.42;105233;1257;107763;-74
2023/03/15 00:41:23;;;;;;;31.40;15.00;;;;;;;8.08;58.31;97646.26;105138;1257;96728;-73
2023/03/15 00:43:51;;;;;;;23.80;9.90;;;;;;;8.13;58.42;97648.25;105284;1257;97125;-72
2023/03/15 00:46:19;;;;;;;19.70;8.10;;;;;;;8.23;58.81;97645.47;105018;1257;109918;-73
2023/03/15 00:48:49;;;;;;;18.60;7.10;;;;;;;8.33;58.71;97646.89;105186;1257;100885;-73
2023/03/15 00:51:21;;;;;;;18.70;6.80;;;;;;;8.42;58.49;97650.55;105162;1261;107632;-73
2023/03/15 00:53:51;;;;;;;17.90;6.50;;;;;;;8.47;58.53;97653.50;105429;1254;96583;-76
2023/03/15 00:56:25;;;;;;;18.90;7.50;;;;;;;8.49;58.81;97651.22;104855;1260;98420;-72
2023/03/15 00:58:53;;;;;;;18.90;7.70;;;;;;;8.54;58.82;97649.27;105276;1258;108921;-75
2023/03/15 01:01:24;;;;;;;20.30;7.30;;;;;;;8.58;59.03;97645.64;105249;1257;101145;-72
2023/03/15 01:03:52;;;;;;;20.20;7.50;;;;;;;8.64;58.91;97649.77;105083;1266;107617;-72
2023/03/15 01:06:26;;;;;;;17.30;6.60;;;;;;;8.69;59.29;97653.71;105336;1258;96625;-72
2023/03/15 01:08:55;;;;;;;21.60;8.70;;;;;;;8.75;59.14;97661.39;105307;1256;97012;-73
2023/03/15 01:11:26;;;;;;;19.80;7.00;;;;;;;8.78;59.22;97661.24;105300;1254;110554;-76
2023/03/15 01:13:57;;;;;;;15.40;5.60;;;;;;;8.80;59.01;97665.33;105014;1269;99620;-72
2023/03/15 01:16:27;;;;;;;19.10;6.40;;;;;;;8.79;58.95;97670.38;105143;1268;107559;-72
2023/03/15 01:18:56;;;;;;;15.20;5.20;;;;;;;8.79;58.92;97671.04;105127;1257;96771;-78
2023/03/15 01:21:27;;;;;;;13.40;5.00;;;;;;;8.84;59.05;97676.84;105058;1260;96655;-73
2023/03/15 01:23:55;;;;;;;12.80;4.80;;;;;;;8.88;59.12;97679.45;105193;1254;109242;-73
2023/03/15 01:26:23;;;;;;;13.00;4.60;;;;;;;8.93;59.22;97682.43;105462;1258;99926;-74
2023/03/15 01:28:51;;;;;;;9.60;4.20;;;;;;;8.99;59.49;97686.34;105093;1269;107698;-71
2023/03/15 01:31:22;;;;;;;10.80;4.20;;;;;;;9.03;59.48;97690.58;105324;1261;96593;-73
2023/03/15 01:33:53;;;;;;;10.10;4.20;;;;;;;9.08;59.30;97695.39;105123;1254;97020;-72
2023/03/15 01:36:21;;;;;;;7.50;3.70;;;;;;;9.13;59.41;97705.81;105194;1257;109921;-73
2023/03/15 01:38:50;;;;;;;10.70;4.20;;;;;;;9.16;59.35;97713.27;105302;1259;100839;-73
2023/03/15 01:41:18;;;;;;;9.20;3.90;;;;;;;9.19;59.67;97714.25;105078;1257;107692;-73
2023/03/15 01:43:46;;;;;;;8.50;3.60;;;;;;;9.24;59.80;97719.49;105157;1257;97941;-72
2023/03/15 01:46:25;;;;;;;9.50;4.00;;;;;;;9.27;59.81;97715.90;105296;1257;97093;-73
2023/03/15 01:49:13;;;;;;;10.70;4.30;;;;;;;9.29;59.77;97716.09;105015;1260;109989;-73
2023/03/15 01:52:16;;;;;;;10.90;4.30;;;;;;;9.28;59.99;97718.80;105105;1260;100887;-74
2023/03/15 01:55:01;;;;;;;9.50;3.80;;;;;;;9.26;59.84;97721.81;104955;1266;108134;-72
2023/03/15 01:57:41;;;;;;;11.40;5.10;;;;;;;9.23;60.22;97726.84;105090;1257;97521;-73
2023/03/15 02:00:18;;;;;;;10.30;5.30;;;;;;;9.23;60.25;97723.85;105090;1254;98458;-73
2023/03/15 02:02:53;;;;;;;14.80;5.70;;;;;;;9.24;60.88;97733.65;105191;1254;110004;-75
2023/03/15 02:05:27;;;;;;;12.60;6.00;;;;;;;9.24;60.47;97732.40;105026;1261;100910;-73
2023/03/15 02:07:55;;;;;;;15.30;6.70;;;;;;;9.23;61.12;97745.85;105184;1257;107635;-73
2023/03/15 02:10:32;;;;;;;16.80;7.60;;;;;;;9.23;61.06;97744.09;105181;1258;96689;-72
2023/03/15 02:13:02;;;;;;;16.00;7.10;;;;;;;9.23;61.15;97748.23;105058;1258;97151;-73
2023/03/15 02:15:31;;;;;;;15.10;6.80;;;;;;;9.22;61.00;97750.59;105207;1258;109895;-73
2023/03/15 02:17:59;;;;;;;15.40;7.60;;;;;;;9.19;60.82;97745.70;105381;1256;99062;-75
2023/03/15 02:20:42;;;;;;;15.60;7.60;;;;;;;9.17;61.19;97748.08;105187;1258;107599;-72
2023/03/15 02:23:17;;;;;;;17.60;8.50;;;;;;;9.14;61.11;97745.27;105217;1254;96588;-72
2023/03/15 02:25:53;;;;;;;15.80;7.70;;;;;;;9.12;61.68;97744.81;105329;1254;97112;-73
2023/03/15 02:28:22;;;;;;;18.50;8.80;;;;;;;9.10;61.88;97749.40;105153;1259;109395;-72
2023/03/15 02:30:50;;;;;;;18.90;8.70;;;;;;;9.08;62.67;97755.05;105366;1266;100974;-73
2023/03/15 02:33:30;;;;;;;16.00;8.20;;;;;;;9.07;62.08;97759.19;105462;1254;107654;-74
2023/03/15 02:36:21;;;;;;;17.50;8.10;;;;;;;9.04;61.44;97766.35;105165;1257;96579;-73
2023/03/15 02:38:50;;;;;;;16.50;8.40;;;;;;;9.00;61.74;97778.34;104913;1256;97068;-73
2023/03/15 02:41:26;;;;;;;19.20;9.90;;;;;;;8.97;62.23;97786.23;105208;1254;110012;-72
2023/03/15 02:44:00;;;;;;;17.70;9.00;;;;;;;8.92;63.00;97803.21;105063;1275;100527;-71
2023/03/15 02:46:29;;;;;;;13.90;7.20;;;;;;;8.87;63.33;97817.14;105181;1261;107618;-73
2023/03/15 02:48:58;;;;;;;12.50;6.30;;;;;;;8.76;63.08;97836.79;105412;1258;96670;-73
2023/03/15 02:51:29;;;;;;;10.10;4.80;;;;;;;8.63;63.26;97851.10;105258;1253;97115;-72
2023/03/15 02:53:57;;;;;;;7.10;4.10;;;;;;;8.48;62.78;97853.55;105315;1257;110034;-72
2023/03/15 02:56:25;;;;;;;7.90;3.80;;;;;;;8.33;62.42;97859.23;104986;1259;100806;-74
2023/03/15 02:58:53;;;;;;;5.50;3.30;;;;;;;8.15;63.08;97871.26;105221;1256;107608;-72
2023/03/15 03:01:22;;;;;;;4.90;3.30;;;;;;;7.95;63.14;97882.28;105425;1258;96664;-72
2023/03/15 03:03:50;;;;;;;7.10;3.70;;;;;;;7.73;63.88;97892.27;105444;1257;97090;-74
2023/03/15 03:06:19;;;;;;;8.50;3.50;;;;;;;7.56;63.45;97896.48;105317;1257;109446;-72
2023/03/15 03:08:48;;;;;;;4.40;3.20;;;;;;;7.40;63.98;97900.73;105147;1253;100848;-73
2023/03/15 03:11:16;;;;;;;5.00;3.30;;;;;;;7.24;63.69;97903.15;105115;1254;107596;-75
2023/03/15 03:13:51;;;;;;;8.60;3.70;;;;;;;7.12;63.57;97920.33;105317;1257;97282;-72
2023/03/15 03:16:21;;;;;;;5.80;4.00;;;;;;;6.95;64.05;97932.48;105064;1254;97002;-72
2023/03/15 03:18:50;;;;;;;6.60;4.00;;;;;;;6.79;64.18;97942.20;105216;1258;109837;-71
2023/03/15 03:21:19;;;;;;;5.90;3.80;;;;;;;6.66;63.77;97946.70;105089;1272;100624;-72
2023/03/15 03:23:47;;;;;;;6.00;4.20;;;;;;;6.55;64.01;97952.80;105235;1254;108086;-71
2023/03/15 03:26:17;;;;;;;5.90;4.00;;;;;;;6.39;63.81;97953.91;105550;1254;96615;-83
2023/03/15 03:28:47;;;;;;;6.10;4.20;;;;;;;6.28;64.28;97964.95;105385;1252;97111;-72
2023/03/15 03:31:27;;;;;;;5.90;4.10;;;;;;;6.17;64.69;97970.11;105086;1257;109936;-80
2023/03/15 03:33:56;;;;;;;8.40;4.70;;;;;;;6.02;64.67;97977.51;105155;1257;98946;-73
2023/03/15 03:36:24;;;;;;;8.00;4.70;;;;;;;5.89;65.17;97981.92;105077;1252;105564;-73
2023/03/15 03:38:56;;;;;;;10.00;4.90;;;;;;;5.77;64.63;97993.64;105265;1257;96592;-73
2023/03/15 03:41:23;;;;;;;8.70;5.00;;;;;;;5.67;65.12;98002.63;105287;1252;97211;-72
2023/03/15 03:43:52;;;;;;;8.50;5.20;;;;;;;5.59;64.41;98003.92;105140;1257;108592;-72
2023/03/15 03:46:21;;;;;;;9.40;5.10;;;;;;;5.51;65.35;98011.10;105392;1254;99126;-72
2023/03/15 03:48:49;;;;;;;9.60;5.10;;;;;;;5.47;64.86;98017.04;105263;1257;107608;-72
2023/03/15 03:51:20;;;;;;;9.70;4.90;;;;;;;5.43;64.97;98009.05;105165;1259;97842;-73
2023/03/15 03:53:48;;;;;;;11.70;5.90;;;;;;;5.39;65.72;98015.65;105260;1254;97204;-71
2023/03/15 03:56:19;;;;;;;11.70;5.60;;;;;;;5.32;64.92;98019.60;105360;1252;109926;-75
2023/03/15 03:58:48;;;;;;;11.70;5.30;;;;;;;5.26;65.43;98026.70;104882;1269;100741;-73
2023/03/15 04:01:16;;;;;;;10.60;5.90;;;;;;;5.18;66.11;98040.06;105121;1270;105982;-74
2023/03/15 04:03:44;;;;;;;13.80;7.10;;;;;;;5.12;65.81;98040.48;105231;1255;96601;-72
2023/03/15 04:06:12;;;;;;;11.50;6.00;;;;;;;5.06;65.52;98048.06;105259;1257;98532;-73
2023/03/15 04:08:40;;;;;;;14.10;6.70;;;;;;;5.00;64.84;98057.39;105099;1257;108244;-73
2023/03/15 04:11:08;;;;;;;11.80;6.40;;;;;;;4.96;65.36;98079.12;108690;1252;100825;-73
2023/03/15 04:13:36;;;;;;;12.20;6.20;;;;;;;4.91;64.73;98073.60;108680;1252;107184;-73
2023/03/15 04:16:05;;;;;;;12.70;6.70;;;;;;;4.90;64.32;98083.00;108599;1253;94573;-73
2023/03/15 04:18:33;;;;;;;15.60;7.90;;;;;;;4.90;64.88;98091.46;108703;1252;94540;-79
2023/03/15 04:21:01;;;;;;;14.90;7.50;;;;;;;4.88;64.58;98104.02;108667;1253;109916;-71
2023/03/15 04:23:29;;;;;;;14.20;7.10;;;;;;;4.85;64.91;98104.62;107782;1252;100707;-76
2023/03/15 04:25:57;;;;;;;15.60;7.40;;;;;;;4.82;64.30;98109.35;105248;1268;107676;-75
2023/03/15 04:28:25;;;;;;;15.30;6.60;;;;;;;4.82;64.50;98114.11;105362;1258;96620;-72
2023/03/15 04:30:57;;;;;;;14.40;7.00;;;;;;;4.78;64.33;98124.34;105473;1252;97345;-73
2023/03/15 04:33:26;;;;;;;14.20;7.40;;;;;;;4.73;64.72;98136.41;105200;1252;109335;-73
2023/03/15 04:35:54;;;;;;;14.80;7.90;;;;;;;4.68;64.25;98137.12;105109;1253;100895;-73
2023/03/15 04:38:25;;;;;;;16.30;8.10;;;;;;;4.65;65.07;98146.26;105400;1256;107377;-72
2023/03/15 04:40:54;;;;;;;14.70;7.40;;;;;;;4.62;64.04;98148.88;105316;1252;96674;-74
2023/03/15 04:43:23;;;;;;;13.30;6.70;;;;;;;4.61;65.00;98155.06;105287;1251;98014;-71
2023/03/15 04:45:51;;;;;;;14.40;7.10;;;;;;;4.58;65.70;98160.17;105179;1257;109930;-72
2023/03/15 04:48:19;;;;;;;13.10;7.00;;;;;;;4.55;65.06;98165.66;105254;1254;101125;-73
2023/03/15 04:50:47;;;;;;;13.20;6.70;;;;;;;4.52;64.82;98163.20;105150;1268;107731;-73
2023/03/15 04:53:15;;;;;;;13.90;6.70;;;;;;;4.51;64.67;98170.61;105300;1253;96536;-88
2023/03/15 04:55:43;;;;;;;14.20;6.80;;;;;;;4.50;64.87;98181.61;105105;1257;97033;-72
2023/03/15 04:58:11;;;;;;;11.60;5.70;;;;;;;4.46;65.56;98190.77;105255;1252;110086;-74
2023/03/15 05:00:42;;;;;;;11.00;6.20;;;;;;;4.43;65.20;98192.91;105437;1253;100170;-73
2023/03/15 05:03:11;;;;;;;11.30;5.70;;;;;;;4.41;65.09;98192.13;105311;1257;107618;-72
2023/03/15 05:05:39;;;;;;;12.60;6.70;;;;;;;4.41;65.06;98189.70;105142;1259;96593;-72
2023/03/15 05:08:07;;;;;;;11.80;6.00;;;;;;;4.41;64.83;98198.63;105366;1257;98264;-75
2023/03/15 05:10:35;;;;;;;10.50;5.80;;;;;;;4.40;65.09;98193.77;105225;1254;109363;-72
2023/03/15 05:13:03;;;;;;;13.30;7.20;;;;;;;4.40;64.75;98196.41;105419;1255;100932;-73
2023/03/15 05:15:31;;;;;;;13.00;6.60;;;;;;;4.41;64.40;98196.56;105259;1258;107642;-72
2023/03/15 05:17:59;;;;;;;11.80;6.30;;;;;;;4.41;64.79;98196.34;105153;1260;96593;-74
2023/03/15 05:20:27;;;;;;;13.60;6.60;;;;;;;4.41;64.48;98198.42;104958;1253;97241;-73
2023/03/15 05:22:57;;;;;;;12.20;6.00;;;;;;;4.41;64.61;98202.66;105376;1253;109362;-76
2023/03/15 05:25:26;;;;;;;12.10;5.50;;;;;;;4.39;64.70;98203.48;105532;1257;100941;-74
2023/03/15 05:27:57;;;;;;;13.60;5.70;;;;;;;4.38;65.03;98206.38;105317;1253;107005;-74
2023/03/15 05:30:26;;;;;;;10.10;5.40;;;;;;;4.37;64.88;98204.69;105157;1258;96698;-75
2023/03/15 05:32:57;;;;;;;11.80;6.10;;;;;;;4.36;64.90;98212.66;105036;1260;97920;-75
2023/03/15 05:35:27;;;;;;;11.10;5.80;;;;;;;4.31;65.13;98210.48;104959;1254;109740;-76
2023/03/15 05:37:55;;;;;;;10.10;5.00;;;;;;;4.29;65.06;98210.92;105418;1253;100843;-73
2023/03/15 05:40:23;;;;;;;10.50;5.40;;;;;;;4.28;64.82;98212.06;105149;1258;107126;-73
2023/03/15 05:42:50;;;;;;;9.50;5.00;;;;;;;4.27;65.36;98211.44;105233;1258;97963;-78
2023/03/15 05:45:18;;;;;;;11.50;5.50;;;;;;;4.25;65.35;98218.73;105353;1255;98153;-74
2023/03/15 05:47:49;;;;;;;7.70;4.60;;;;;;;4.24;64.90;98224.98;105151;1256;108929;-74
2023/03/15 05:50:17;;;;;;;10.90;5.60;;;;;;;4.22;65.03;98225.73;104837;1258;101161;-75
2023/03/15 05:52:45;;;;;;;11.10;5.80;;;;;;;4.21;65.35;98233.05;105393;1257;107637;-85
2023/03/15 05:55:13;;;;;;;10.10;5.30;;;;;;;4.18;65.60;98238.25;104882;1261;97079;-74
2023/03/15 05:57:41;;;;;;;9.00;4.40;;;;;;;4.16;65.61;98237.70;105171;1258;98255;-73
2023/03/15 06:00:10;;;;;;;11.60;5.30;;;;;;;4.14;65.14;98239.21;105324;1253;109581;-74
2023/03/15 06:02:38;;;;;;;6.80;3.90;;;;;;;4.14;65.08;98244.84;105331;1254;100169;-75
2023/03/15 06:05:06;;;;;;;10.00;4.40;;;;;;;4.12;65.18;98243.04;105217;1266;107262;-73
2023/03/15 06:07:34;;;;;;;9.00;4.00;;;;;;;4.10;65.45;98249.95;105195;1253;97950;-73
2023/03/15 06:10:04;;;;;;;10.30;4.00;;;;;;;4.09;65.34;98250.73;105009;1260;97024;-73
2023/03/15 06:12:31;;;;;;;8.40;4.10;;;;;;;4.08;65.27;98261.84;105118;1257;108936;-78
2023/03/15 06:14:59;;;;;;;7.90;4.30;;;;;;;4.08;65.11;98272.77;105242;1253;101121;-78
2023/03/15 06:17:27;;;;;;;14.70;5.30;;;;;;;4.08;65.33;98279.22;105402;1257;108923;-75
2023/03/15 06:19:56;;;;;;;8.40;4.20;;;;;;;4.10;65.18;98287.67;105389;1257;97924;-79
2023/03/15 06:22:24;;;;;;;8.60;4.40;;;;;;;4.12;64.75;98289.52;105273;1258;97098;-74
2023/03/15 06:24:51;;;;;;;11.50;5.20;;;;;;;4.14;64.82;98297.67;105360;1256;109998;-73
2023/03/15 06:27:20;;;;;;;12.10;5.80;;;;;;;4.12;65.13;98312.30;105489;1256;101001;-77
2023/03/15 06:29:49;;;;;;;7.90;4.70;;;;;;;4.11;65.18;98312.59;105173;1261;107107;-78
2023/03/15 06:32:17;;;;;;;7.90;4.00;;;;;;;4.10;65.17;98318.77;105041;1261;96562;-73
2023/03/15 06:34:46;;;;;;;9.40;4.10;;;;;;;4.07;65.39;98320.54;105471;1257;97079;-73
2023/03/15 06:37:14;;;;;;;9.30;3.90;;;;;;;4.06;65.19;98322.84;105382;1254;109495;-73
2023/03/15 06:39:53;;;;;;;9.10;4.30;;;;;;;4.07;65.19;98320.39;105104;1260;99655;-75
2023/03/15 06:42:21;;;;;;;9.10;4.10;;;;;;;4.09;65.04;98326.56;105231;1257;109030;-73
2023/03/15 06:44:49;;;;;;;9.60;4.10;;;;;;;4.08;65.35;98328.15;105165;1255;96652;-74
2023/03/15 06:47:17;;;;;;;7.60;3.80;;;;;;;4.08;65.00;98330.80;105347;1253;97122;-78
2023/03/15 06:49:49;;;;;;;9.70;4.10;;;;;;;4.07;65.13;98333.50;105089;1257;108150;-71
2023/03/15 06:52:18;;;;;;;10.30;4.80;;;;;;;4.06;65.33;98338.29;105383;1257;100511;-72
2023/03/15 06:54:46;;;;;;;8.50;4.60;;;;;;;4.06;64.95;98343.56;105386;1265;107340;-73
2023/03/15 06:57:15;;;;;;;12.00;5.70;;;;;;;4.07;65.41;98346.89;105007;1266;96684;-73
2023/03/15 06:59:43;;;;;;;17.60;8.30;;;;;;;4.07;65.12;98353.15;104820;1260;97123;-71
2023/03/15 07:02:17;;;;;;;14.60;7.10;;;;;;;4.09;65.18;98350.43;105242;1255;109939;-78
2023/03/15 07:04:46;;;;;;;16.20;7.20;;;;;;;4.12;64.89;98348.15;105303;1256;100884;-72
2023/03/15 07:07:15;;;;;;;16.30;6.00;;;;;;;4.16;65.01;98357.02;105315;1257;107560;-82
2023/03/15 07:09:43;;;;;;;14.30;5.50;;;;;;;4.17;64.90;98359.43;105639;1253;98033;-72
2023/03/15 07:12:11;;;;;;;11.70;5.80;;;;;;;4.19;64.97;98366.52;105369;1257;97806;-74
2023/03/15 07:14:39;;;;;;;11.20;5.10;;;;;;;4.15;65.19;98369.90;105384;1255;109884;-72
2023/03/15 07:17:07;;;;;;;9.00;5.20;;;;;;;4.11;65.57;98375.36;105225;1254;99709;-75
2023/03/15 07:19:36;;;;;;;12.50;5.80;;;;;;;4.09;65.12;98372.33;105324;1260;107648;-71
2023/03/15 07:22:13;;;;;;;26.00;11.80;;;;;;;4.10;65.72;98375.42;105184;1258;97427;-76
2023/03/15 07:24:41;;;;;;;22.30;10.20;;;;;;;4.07;65.27;98379.29;105373;1256;97087;-80
2023/03/15 07:27:11;;;;;;;16.90;7.80;;;;;;;4.08;65.04;98384.69;105233;1259;108346;-72
2023/03/15 07:29:42;;;;;;;13.40;6.40;;;;;;;4.11;65.55;98390.14;105100;1258;101366;-78
2023/03/15 07:32:10;;;;;;;14.90;6.60;;;;;;;4.06;65.96;98388.29;105101;1254;107452;-75
2023/03/15 07:34:38;;;;;;;14.50;6.80;;;;;;;4.06;65.09;98394.48;105116;1258;97423;-73
2023/03/15 07:37:06;;;;;;;20.30;9.70;;;;;;;4.10;65.94;98401.42;105284;1257;97086;-71
2023/03/15 07:39:34;;;;;;;16.50;7.00;;;;;;;4.05;66.00;98399.09;105144;1257;109784;-71
2023/03/15 07:42:05;;;;;;;17.30;6.80;;;;;;;4.04;65.54;98404.03;105002;1257;178089;-71
2023/03/15 07:44:43;;;;;;;15.40;6.70;;;;;;;4.05;65.70;98404.70;105243;1257;107659;-73
2023/03/15 07:47:11;;;;;;;17.10;6.80;;;;;;;4.07;65.13;98408.44;105070;1258;97838;-71
2023/03/15 07:49:39;;;;;;;11.40;5.60;;;;;;;4.10;65.82;98418.80;105339;1254;98192;-71
2023/03/15 07:52:08;;;;;;;14.20;6.00;;;;;;;4.08;65.16;98419.27;105226;1258;110360;-74
2023/03/15 07:54:48;;;;;;;15.50;6.60;;;;;;;4.08;65.17;98423.45;105129;1270;100581;-75
2023/03/15 07:57:17;;;;;;;12.50;5.80;;;;;;;4.11;65.15;98427.69;105221;1258;107729;-77
2023/03/15 07:59:45;;;;;;;14.70;5.90;;;;;;;4.08;65.33;98430.80;105234;1254;97832;-77
2023/03/15 08:02:14;;;;;;;13.40;5.60;;;;;;;4.06;65.75;98435.52;105034;1258;97089;-78
2023/03/15 08:04:43;;;;;;;11.60;5.90;;;;;;;4.07;65.41;98444.02;105331;1257;109895;-75
2023/03/15 08:07:11;;;;;;;17.10;7.10;;;;;;;4.12;65.35;98444.98;105319;1257;99956;-73
2023/03/15 08:09:39;;;;;;;22.80;8.60;;;;;;;4.19;65.28;98447.61;105098;1257;107087;-72
2023/03/15 08:12:07;;;;;;;19.00;9.60;;;;;;;4.26;65.21;98447.04;104938;1258;97519;-71
2023/03/15 08:14:36;;;;;;;16.90;7.00;;;;;;;4.26;65.34;98456.30;105041;1257;97090;-73
2023/03/15 08:17:04;;;;;;;16.60;6.80;;;;;;;4.23;65.35;98456.52;105189;1258;109971;-74
2023/03/15 08:19:32;;;;;;;18.40;8.00;;;;;;;4.21;65.17;98457.67;105311;1255;100882;-76
2023/03/15 08:22:01;;;;;;;18.60;7.90;;;;;;;4.19;65.47;98463.02;105093;1257;106169;-72
2023/03/15 08:24:30;;;;;;;14.10;5.90;;;;;;;4.16;65.85;98470.20;105222;1257;96603;-73
2023/03/15 08:26:58;;;;;;;15.30;6.30;;;;;;;4.08;65.58;98472.42;105156;1257;97520;-73
2023/03/15 08:29:27;;;;;;;14.60;6.20;;;;;;;3.98;66.17;98475.42;105308;1253;109897;-84
2023/03/15 08:31:55;;;;;;;16.60;6.30;;;;;;;3.90;65.75;98477.80;105259;1257;100149;-76
2023/03/15 08:34:24;;;;;;;19.60;6.50;;;;;;;3.85;65.77;98476.09;105477;1257;107684;-73
2023/03/15 08:36:52;;;;;;;18.50;7.40;;;;;;;3.85;66.30;98483.32;105378;1257;97810;-74
2023/03/15 08:39:22;;;;;;;16.90;6.70;;;;;;;3.84;66.15;98484.75;105484;1257;97098;-73
2023/03/15 08:41:50;;;;;;;16.60;7.50;;;;;;;3.85;66.34;98490.15;105194;1253;109961;-76
2023/03/15 08:44:18;;;;;;;19.20;8.20;;;;;;;3.89;65.73;98495.90;105253;1255;101653;-72
2023/03/15 08:46:47;;;;;;;20.00;7.80;;;;;;;4.00;65.92;98495.83;105098;1259;107598;-75
2023/03/15 08:49:15;;;;;;;22.40;12.30;;;;;;;4.01;66.16;98506.67;105216;1253;96595;-83
2023/03/15 08:51:43;;;;;;;22.80;10.00;;;;;;;4.01;65.66;98513.52;105159;1260;97111;-71
2023/03/15 08:54:13;;;;;;;21.20;9.20;;;;;;;4.04;65.97;98517.88;105012;1253;109929;-75
2023/03/15 08:56:48;;;;;;;27.60;12.10;;;;;;;4.04;65.75;98515.11;104892;1260;102078;-75
2023/03/15 08:59:17;;;;;;;25.30;11.40;;;;;;;4.04;66.06;98513.20;104957;1258;106838;-74
2023/03/15 09:01:59;;;;;;;30.70;15.40;;;;;;;4.05;65.88;98526.25;105116;1258;96581;-78
2023/03/15 09:04:28;;;;;;;28.00;9.80;;;;;;;3.99;66.67;98531.13;105548;1255;97925;-76
2023/03/15 09:06:56;;;;;;;21.60;10.00;;;;;;;3.94;66.21;98530.17;105227;1266;109394;-75
2023/03/15 09:09:25;;;;;;;23.30;10.30;;;;;;;3.97;65.95;98529.16;105402;1257;100564;-74
2023/03/15 09:11:55;;;;;;;36.40;14.70;;;;;;;4.06;66.83;98535.54;105401;1260;108941;-73
2023/03/15 09:14:23;;;;;;;31.30;14.00;;;;;;;4.07;66.57;98540.20;105308;1259;96684;-75
2023/03/15 09:16:51;;;;;;;22.20;10.00;;;;;;;4.08;66.10;98542.77;105056;1257;97809;-76
2023/03/15 09:19:22;;;;;;;29.30;12.90;;;;;;;4.08;65.88;98542.95;105270;1258;109986;-76
2023/03/15 09:21:54;;;;;;;22.50;9.50;;;;;;;4.10;66.61;98545.48;105007;1253;100855;-77
2023/03/15 09:24:23;;;;;;;21.20;8.00;;;;;;;4.03;66.79;98542.88;105265;1253;107980;-75
2023/03/15 09:26:51;;;;;;;28.90;13.70;;;;;;;4.02;65.93;98543.08;105635;1257;97634;-78
2023/03/15 09:29:19;;;;;;;25.30;10.20;;;;;;;4.02;66.57;98545.38;105356;1256;96625;-71
2023/03/15 09:31:48;;;;;;;19.50;7.40;;;;;;;3.97;66.44;98553.17;105200;1259;109521;-75
2023/03/15 09:34:17;;;;;;;21.10;7.00;;;;;;;3.93;66.53;98555.52;105133;1253;100805;-79
2023/03/15 09:36:51;;;;;;;19.30;6.40;;;;;;;3.91;66.62;98553.87;105319;1260;106670;-75
2023/03/15 09:39:21;;;;;;;23.50;7.60;;;;;;;3.91;66.31;98551.05;105248;1257;97819;-72
2023/03/15 09:41:57;;;;;;;19.00;7.30;;;;;;;3.93;66.82;98554.65;105386;1256;98015;-73
2023/03/15 09:44:43;;;;;;;17.10;6.70;;;;;;;3.91;66.57;98552.30;105329;1268;109897;-72
2023/03/15 09:47:17;;;;;;;16.20;6.40;;;;;;;3.95;66.44;98556.30;105200;1253;99001;-75
2023/03/15 09:50:06;;;;;;;;;;;;;;;;;;;;;
2023/03/15 09:52:44;;;;;;;19.50;7.90;;;;;;;4.07;66.35;98554.96;105352;1257;97921;-76
2023/03/15 09:55:22;;;;;;;24.50;13.50;;;;;;;4.15;66.04;98549.05;105317;1257;97515;-77
2023/03/15 09:57:57;;;;;;;20.10;8.10;;;;;;;4.26;66.22;98555.85;105108;1253;109690;-76
2023/03/15 10:00:32;;;;;;;20.30;7.70;;;;;;;4.28;66.18;98553.27;105255;1256;100389;-76
2023/03/15 10:03:05;;;;;;;24.00;10.00;;;;;;;4.24;66.21;98554.22;105240;1257;107736;-76
2023/03/15 10:05:41;;;;;;;20.90;8.60;;;;;;;4.21;65.78;98556.47;105388;1257;97888;-75
2023/03/15 10:08:16;;;;;;;18.30;7.10;;;;;;;4.31;65.90;98553.30;105468;1253;96587;-74
2023/03/15 10:11:05;;;;;;;19.80;7.20;;;;;;;4.44;65.73;98551.67;105150;1256;107781;-75
2023/03/15 10:13:53;;;;;;;;;;;;;;;;;;;;;
2023/03/15 10:16:43;;;;;;;24.90;10.10;;;;;;;4.62;65.82;98549.96;105335;1256;106729;-74
2023/03/15 10:19:48;;;;;;;25.50;10.20;;;;;;;4.72;65.89;98553.08;105045;1258;97904;-73
2023/03/15 10:22:40;;;;;;;30.30;14.30;;;;;;;4.77;65.76;98546.88;105454;1256;97429;-74
2023/03/15 10:25:22;;;;;;;21.90;10.30;;;;;;;4.91;65.77;98546.41;105350;1257;109637;-74
2023/03/15 10:28:02;;;;;;;23.00;11.10;;;;;;;5.01;65.72;98547.79;105139;1254;99886;-73
2023/03/15 10:30:34;;;;;;;23.50;7.90;;;;;;;5.07;65.79;98550.77;105398;1258;107234;-73
2023/03/15 10:33:19;;;;;;;17.60;6.90;;;;;;;5.17;65.76;98548.45;105208;1257;97519;-74
2023/03/15 10:35:47;;;;;;;18.50;6.50;;;;;;;5.25;65.58;98546.77;104980;1253;98542;-73
2023/03/15 10:38:19;;;;;;;19.20;8.00;;;;;;;5.29;65.81;98548.05;106302;1255;110013;-73
2023/03/15 10:40:57;;;;;;;23.40;8.10;;;;;;;5.40;65.68;98549.23;105497;1253;100753;-72
2023/03/15 10:43:34;;;;;;;20.50;7.00;;;;;;;5.41;65.41;98549.52;108498;1253;107622;-74
2023/03/15 10:46:05;;;;;;;15.30;5.40;;;;;;;5.38;65.14;98552.29;105952;1258;96678;-73
2023/03/15 10:48:36;;;;;;;17.60;5.80;;;;;;;5.36;64.35;98553.27;105807;1254;96877;-73
2023/03/15 10:51:27;;;;;;;32.40;11.30;;;;;;;5.34;64.09;98558.86;105539;1261;110592;-77
2023/03/15 10:54:00;;;;;;;20.70;6.20;;;;;;;5.34;64.18;98563.62;105813;1255;100613;-73
2023/03/15 10:56:33;;;;;;;23.20;7.60;;;;;;;5.36;64.28;98563.29;105465;1257;107374;-73
2023/03/15 10:59:02;;;;;;;;;;;;;;;5.43;64.55;98565.73;105418;1258;96609;-72
2023/03/15 11:01:40;;;;;;;24.00;7.60;;;;;;;5.54;64.65;98558.73;105404;1257;96682;-73
2023/03/15 11:04:18;;;;;;;20.60;5.30;;;;;;;5.70;64.18;98556.71;105258;1253;109890;-79
2023/03/15 11:07:02;;;;;;;16.50;5.30;;;;;;;5.78;63.57;98562.02;105218;1257;101375;-73
2023/03/15 11:09:40;;;;;;;15.50;5.00;;;;;;;5.87;64.09;98568.91;105300;1271;107098;-72
2023/03/15 11:12:30;;;;;;;16.80;5.70;;;;;;;5.99;64.27;98567.46;105290;1254;97933;-74
2023/03/15 11:15:06;;;;;;;17.20;5.60;;;;;;;6.12;63.96;98573.04;105210;1255;98187;-72
2023/03/15 11:17:41;;;;;;;17.20;5.30;;;;;;;6.09;63.92;98574.42;105408;1253;109895;-73
2023/03/15 11:20:38;;;;;;;17.40;5.90;;;;;;;5.99;63.51;98579.08;105291;1258;99726;-72
2023/03/15 11:23:28;;;;;;;23.00;7.30;;;;;;;5.95;64.03;98578.58;105193;1252;106810;-75
2023/03/15 11:25:57;;;;;;;21.40;6.00;;;;;;;5.99;63.52;98577.67;105310;1258;96533;-73
2023/03/15 11:28:30;;;;;;;19.10;7.50;;;;;;;6.03;63.83;98579.21;105360;1256;98232;-73
2023/03/15 11:31:03;;;;;;;19.20;5.90;;;;;;;6.04;62.82;98585.33;105170;1255;109351;-74
2023/03/15 11:33:34;;;;;;;28.50;8.90;;;;;;;6.07;63.46;98586.21;105238;1254;100860;-75
2023/03/15 11:36:07;;;;;;;25.40;9.20;;;;;;;6.07;63.18;98582.69;105267;1259;107608;-73
2023/03/15 11:38:42;;;;;;;22.70;7.70;;;;;;;6.08;62.95;98580.31;105412;1255;96582;-74
2023/03/15 11:41:20;;;;;;;32.80;10.70;;;;;;;6.14;63.17;98582.96;105289;1257;97014;-73
2023/03/15 11:44:11;;;;;;;48.10;17.80;;;;;;;6.24;63.53;98584.06;105101;1258;109897;-73